createdAt,value
2022-12-19T00:00:30.999Z,14.60
2022-12-19T00:02:59.076Z,16.73
2022-12-19T00:05:27.096Z,15.83
2022-12-19T00:07:56.342Z,13.30
2022-12-19T00:10:25.689Z,17.00
2022-12-19T00:12:53.434Z,14.87
2022-12-19T00:15:21.221Z,16.33
2022-12-19T00:17:49.012Z,14.97
2022-12-19T00:20:18.512Z,13.23
2022-12-19T00:22:46.534Z,17.10
2022-12-19T00:25:15.843Z,16.03
2022-12-19T00:27:43.858Z,16.70
2022-12-19T00:30:12.951Z,16.23
2022-12-19T00:32:40.679Z,13.13
2022-12-19T00:35:08.785Z,17.17
2022-12-19T00:37:38.423Z,15.93
2022-12-19T00:40:10.639Z,18.77
2022-12-19T00:42:39.773Z,16.20
2022-12-19T00:45:08.289Z,16.37
2022-12-19T00:47:36.182Z,15.53
2022-12-19T00:50:04.493Z,17.43
2022-12-19T00:52:32.258Z,12.93
2022-12-19T00:55:01.725Z,17.00
2022-12-19T00:57:31.298Z,17.60
2022-12-19T01:00:00.515Z,15.50
2022-12-19T01:02:28.488Z,18.90
2022-12-19T01:04:56.233Z,17.70
2022-12-19T01:07:24.082Z,14.87
2022-12-19T01:09:51.815Z,18.83
2022-12-19T01:12:37.262Z,17.33
2022-12-19T01:15:07.443Z,13.93
2022-12-19T01:17:43.821Z,14.33
2022-12-19T01:20:12.808Z,18.37
2022-12-19T01:22:40.843Z,17.27
2022-12-19T01:25:08.972Z,18.23
2022-12-19T01:27:36.773Z,13.93
2022-12-19T01:30:07.375Z,14.37
2022-12-19T01:32:36.050Z,17.17
2022-12-19T01:35:03.919Z,14.33
2022-12-19T01:37:31.775Z,15.50
2022-12-19T01:39:59.587Z,17.83
2022-12-19T01:42:27.230Z,18.83
2022-12-19T01:45:34.570Z,17.80
2022-12-19T01:48:12.277Z,14.37
2022-12-19T01:50:43.297Z,18.80
2022-12-19T01:53:21.292Z,16.50
2022-12-19T01:55:48.999Z,16.07
2022-12-19T01:58:16.889Z,18.30
2022-12-19T02:00:46.157Z,16.07
2022-12-19T02:03:16.194Z,18.63
2022-12-19T02:05:44.160Z,18.90
2022-12-19T02:08:11.893Z,16.17
2022-12-19T02:10:39.671Z,17.40
2022-12-19T02:13:07.335Z,15.83
2022-12-19T02:15:39.341Z,11.33
2022-12-19T02:18:11.171Z,14.33
2022-12-19T02:20:53.323Z,15.67
2022-12-19T02:23:35.063Z,18.90
2022-12-19T02:26:12.005Z,14.83
2022-12-19T02:29:01.776Z,14.80
2022-12-19T02:31:31.730Z,16.87
2022-12-19T02:34:04.370Z,14.93
2022-12-19T02:36:38.685Z,17.97
2022-12-19T02:39:09.277Z,16.37
2022-12-19T02:41:43.302Z,11.77
2022-12-19T02:44:15.847Z,16.10
2022-12-19T02:46:45.284Z,18.07
2022-12-19T02:49:12.993Z,16.33
2022-12-19T02:51:47.105Z,15.83
2022-12-19T02:54:14.831Z,12.47
2022-12-19T02:56:46.365Z,14.90
2022-12-19T02:59:24.675Z,13.47
2022-12-19T03:01:54.876Z,14.60
2022-12-19T03:04:29.855Z,14.63
2022-12-19T03:07:02.118Z,14.00
2022-12-19T03:09:33.638Z,15.37
2022-12-19T03:12:03.862Z,14.10
2022-12-19T03:14:31.709Z,16.10
2022-12-19T03:17:05.683Z,12.23
2022-12-19T03:19:34.168Z,16.80
2022-12-19T03:22:01.985Z,16.47
2022-12-19T03:24:29.703Z,15.00
2022-12-19T03:26:58.757Z,15.40
2022-12-19T03:29:28.460Z,15.47
2022-12-19T03:31:56.567Z,16.00
2022-12-19T03:34:27.170Z,12.47
2022-12-19T03:36:56.573Z,13.03
2022-12-19T03:39:24.892Z,12.47
2022-12-19T03:42:10.155Z,15.17
2022-12-19T03:44:40.636Z,14.53
2022-12-19T03:47:11.210Z,16.07
2022-12-19T03:49:40.423Z,14.43
2022-12-19T03:52:12.936Z,16.43
2022-12-19T03:54:41.601Z,14.93
2022-12-19T03:57:10.972Z,14.30
2022-12-19T03:59:41.184Z,16.80
2022-12-19T04:02:09.216Z,14.43
2022-12-19T04:04:38.095Z,16.47
2022-12-19T04:07:07.175Z,16.17
2022-12-19T04:09:34.963Z,16.63
2022-12-19T04:12:04.478Z,15.87
2022-12-19T04:14:33.376Z,16.63
2022-12-19T04:17:05.641Z,17.07
2022-12-19T04:19:41.073Z,16.67
2022-12-19T04:22:13.161Z,13.40
2022-12-19T04:24:41.671Z,16.90
2022-12-19T04:27:09.603Z,16.03
2022-12-19T04:29:38.015Z,15.87
2022-12-19T04:32:06.368Z,16.90
2022-12-19T04:34:36.802Z,16.80
2022-12-19T04:37:06.710Z,17.47
2022-12-19T04:39:35.780Z,16.33
2022-12-19T04:42:03.443Z,17.20
2022-12-19T04:44:31.184Z,18.13
2022-12-19T04:46:58.879Z,16.17
2022-12-19T04:49:26.770Z,19.63
2022-12-19T04:51:54.588Z,14.57
2022-12-19T04:54:22.836Z,18.37
2022-12-19T04:56:51.903Z,14.33
2022-12-19T04:59:19.594Z,17.87
2022-12-19T05:01:47.305Z,18.07
2022-12-19T05:04:15.087Z,10.83
2022-12-19T05:06:42.751Z,14.90
2022-12-19T05:09:11.277Z,18.43
2022-12-19T05:11:39.196Z,16.83
2022-12-19T05:14:09.358Z,15.17
2022-12-19T05:16:37.345Z,14.93
2022-12-19T05:19:08.264Z,17.90
2022-12-19T05:21:35.977Z,20.30
2022-12-19T05:24:41.837Z,14.93
2022-12-19T05:27:09.655Z,16.37
2022-12-19T05:29:39.048Z,15.43
2022-12-19T05:32:07.055Z,16.90
2022-12-19T05:34:34.913Z,20.10
2022-12-19T05:37:03.541Z,15.93
2022-12-19T05:39:35.018Z,13.97
2022-12-19T05:42:02.731Z,16.03
2022-12-19T05:44:30.584Z,17.73
2022-12-19T05:47:00.858Z,19.07
2022-12-19T05:49:28.655Z,18.97
2022-12-19T05:51:56.384Z,14.73
2022-12-19T05:54:24.255Z,15.93
2022-12-19T05:56:51.949Z,18.03
2022-12-19T05:59:19.637Z,17.17
2022-12-19T06:01:47.633Z,18.00
2022-12-19T06:04:17.129Z,14.97
2022-12-19T06:06:45.620Z,18.60
2022-12-19T06:09:13.567Z,18.40
2022-12-19T06:11:41.499Z,16.60
2022-12-19T06:14:09.477Z,16.70
2022-12-19T06:16:37.326Z,16.30
2022-12-19T06:19:05.264Z,12.60
2022-12-19T06:21:34.699Z,18.40
2022-12-19T06:24:02.585Z,18.17
2022-12-19T06:26:31.162Z,16.73
2022-12-19T06:28:58.996Z,10.23
2022-12-19T06:31:26.932Z,15.60
2022-12-19T06:33:55.791Z,16.73
2022-12-19T06:36:24.323Z,17.33
2022-12-19T06:39:00.741Z,16.90
2022-12-19T06:41:45.978Z,17.47
2022-12-19T06:44:27.103Z,15.50
2022-12-19T06:46:55.007Z,17.57
2022-12-19T06:49:23.135Z,18.40
2022-12-19T06:51:51.127Z,16.10
2022-12-19T06:54:20.385Z,17.73
2022-12-19T06:56:48.334Z,13.73
2022-12-19T06:59:17.040Z,18.23
2022-12-19T07:01:52.598Z,17.93
2022-12-19T07:04:23.895Z,16.80
2022-12-19T07:06:51.904Z,13.90
2022-12-19T07:09:22.223Z,17.73
2022-12-19T07:11:50.052Z,16.23
2022-12-19T07:14:19.033Z,17.50
2022-12-19T07:16:47.861Z,14.90
2022-12-19T07:19:16.024Z,17.13
2022-12-19T07:21:44.209Z,15.67
2022-12-19T07:24:12.491Z,8.87
2022-12-19T07:26:42.211Z,14.60
2022-12-19T07:29:10.292Z,18.77
2022-12-19T07:31:38.987Z,13.03
2022-12-19T07:34:07.540Z,11.33
2022-12-19T07:36:36.069Z,13.73
2022-12-19T07:39:10.601Z,16.30
2022-12-19T07:41:38.652Z,13.73
2022-12-19T07:44:08.715Z,15.37
2022-12-19T07:46:36.835Z,16.47
2022-12-19T07:49:04.584Z,15.93
2022-12-19T07:51:32.550Z,16.80
2022-12-19T07:54:00.426Z,12.33
2022-12-19T07:56:29.130Z,11.93
2022-12-19T07:58:57.325Z,13.63
2022-12-19T08:01:38.301Z,15.33
2022-12-19T08:04:06.473Z,17.10
2022-12-19T08:06:40.585Z,15.37
2022-12-19T08:09:11.256Z,16.50
2022-12-19T08:11:39.660Z,13.50
2022-12-19T08:14:08.018Z,14.70
2022-12-19T08:17:03.203Z,14.70
2022-12-19T08:19:30.831Z,11.50
2022-12-19T08:21:59.498Z,13.77
2022-12-19T08:24:28.016Z,16.33
2022-12-19T08:26:55.931Z,15.20
2022-12-19T08:29:40.704Z,13.67
2022-12-19T08:32:11.579Z,12.13
2022-12-19T08:34:45.173Z,16.63
2022-12-19T08:37:13.727Z,14.83
2022-12-19T08:39:47.285Z,13.83
2022-12-19T08:42:28.751Z,15.03
2022-12-19T08:44:56.580Z,16.00
2022-12-19T08:47:25.779Z,15.53
2022-12-19T08:49:53.458Z,14.67
2022-12-19T08:52:27.930Z,15.13
2022-12-19T08:54:55.500Z,14.90
2022-12-19T08:57:23.236Z,13.30
2022-12-19T08:59:50.816Z,11.13
2022-12-19T09:02:19.836Z,16.43
2022-12-19T09:06:00.383Z,11.83
2022-12-19T09:07:38.627Z,14.37
2022-12-19T09:10:07.842Z,15.63
2022-12-19T09:12:35.561Z,14.53
2022-12-19T09:15:03.163Z,13.93
2022-12-19T09:17:35.138Z,10.37
2022-12-19T09:20:04.463Z,14.43
2022-12-19T09:22:32.305Z,14.77
2022-12-19T09:25:00.021Z,15.37
2022-12-19T09:27:27.881Z,14.40
2022-12-19T09:29:55.559Z,12.83
2022-12-19T09:32:23.347Z,12.57
2022-12-19T09:34:50.903Z,10.50
2022-12-19T09:37:20.144Z,12.57
2022-12-19T09:39:47.847Z,11.90
2022-12-19T09:42:41.606Z,11.27
2022-12-19T09:45:33.698Z,10.13
2022-12-19T09:48:01.971Z,13.43
2022-12-19T09:50:37.140Z,11.80
2022-12-19T09:53:08.401Z,8.50
2022-12-19T09:55:37.400Z,15.27
2022-12-19T09:58:09.029Z,13.00
2022-12-19T10:00:38.351Z,10.70
2022-12-19T10:03:13.201Z,11.17
2022-12-19T10:06:34.564Z,12.00
2022-12-19T10:08:32.647Z,13.80
2022-12-19T10:12:40.012Z,13.33
2022-12-19T10:14:15.424Z,12.33
2022-12-19T10:17:08.880Z,13.13
2022-12-19T10:19:43.578Z,13.30
2022-12-19T10:22:19.820Z,12.40
2022-12-19T10:25:09.661Z,12.90
2022-12-19T10:27:57.237Z,12.70
2022-12-19T10:30:29.041Z,11.90
2022-12-19T10:33:03.987Z,12.37
2022-12-19T10:35:35.547Z,12.13
2022-12-19T10:38:13.425Z,12.70
2022-12-19T10:40:44.115Z,11.80
2022-12-19T10:43:19.142Z,12.30
2022-12-19T10:45:55.259Z,8.90
2022-12-19T10:48:30.383Z,12.63
2022-12-19T10:51:05.183Z,11.33
2022-12-19T10:53:34.766Z,9.77
2022-12-19T10:56:04.489Z,13.23
2022-12-19T10:58:34.341Z,11.97
2022-12-19T11:01:07.129Z,12.93
2022-12-19T11:03:35.193Z,10.90
2022-12-19T11:06:03.572Z,11.13
2022-12-19T11:08:31.840Z,12.80
2022-12-19T11:12:25.651Z,11.93
2022-12-19T11:20:33.705Z,11.73
2022-12-19T11:22:27.460Z,11.63
2022-12-19T11:27:41.073Z,11.27
2022-12-19T11:29:37.687Z,12.07
2022-12-19T11:30:09.081Z,9.93
2022-12-19T11:30:49.021Z,9.53
2022-12-19T11:33:54.751Z,11.47
2022-12-19T11:36:30.161Z,10.87
2022-12-19T11:38:57.767Z,10.03
2022-12-19T11:41:30.498Z,12.07
2022-12-19T11:44:02.013Z,11.80
2022-12-19T11:46:37.284Z,12.90
2022-12-19T11:49:06.859Z,10.33
2022-12-19T11:51:39.945Z,10.47
2022-12-19T11:54:11.172Z,9.60
2022-12-19T11:56:40.257Z,11.97
2022-12-19T11:59:14.064Z,10.57
2022-12-19T12:01:55.393Z,9.47
2022-12-19T12:04:56.832Z,9.40
2022-12-19T12:08:02.687Z,11.73
2022-12-19T12:17:11.837Z,11.87
2022-12-19T12:21:17.190Z,9.67
2022-12-19T12:25:44.511Z,7.97
2022-12-19T12:31:05.749Z,11.40
2022-12-19T12:31:39.253Z,10.23
2022-12-19T12:31:41.323Z,11.03
2022-12-19T12:31:51.875Z,10.83
2022-12-19T12:31:52.363Z,8.13
2022-12-19T12:35:36.476Z,10.10
2022-12-19T12:39:24.313Z,10.60
2022-12-19T12:42:06.252Z,9.97
2022-12-19T12:44:41.134Z,9.53
2022-12-19T12:47:17.004Z,9.97
2022-12-19T12:49:46.950Z,11.47
2022-12-19T12:52:16.269Z,10.20
2022-12-19T12:54:47.031Z,9.23
2022-12-19T12:57:34.741Z,10.77
2022-12-19T13:00:35.851Z,10.77
2022-12-19T13:03:05.381Z,8.20
2022-12-19T13:05:53.670Z,11.03
2022-12-19T13:08:46.613Z,9.23
2022-12-19T13:11:36.002Z,7.30
2022-12-19T13:14:03.759Z,8.93
2022-12-19T13:16:53.010Z,8.57
2022-12-19T13:19:27.914Z,8.73
2022-12-19T13:22:19.217Z,6.50
2022-12-19T13:24:47.529Z,8.40
2022-12-19T13:27:33.922Z,9.23
2022-12-19T13:30:29.078Z,10.23
2022-12-19T13:33:11.076Z,6.67
2022-12-19T13:36:56.619Z,8.37
2022-12-19T13:40:01.199Z,9.73
2022-12-19T13:41:47.036Z,12.27
2022-12-19T13:44:14.806Z,7.87
2022-12-19T13:46:43.124Z,7.90
2022-12-19T13:49:13.124Z,9.33
2022-12-19T13:51:46.934Z,8.67
2022-12-19T13:54:23.809Z,8.80
2022-12-19T13:56:52.077Z,9.13
2022-12-19T13:59:20.149Z,9.70
2022-12-19T14:01:48.167Z,8.83
2022-12-19T14:04:27.331Z,8.23
2022-12-19T14:06:58.495Z,8.77
2022-12-19T14:11:28.094Z,8.77
2022-12-19T14:13:55.601Z,9.83
2022-12-19T14:15:32.196Z,9.13
2022-12-19T14:18:43.212Z,9.43
2022-12-19T14:22:09.845Z,9.73
2022-12-19T14:23:43.319Z,10.00
2022-12-19T14:28:25.081Z,8.47
2022-12-19T14:29:04.618Z,8.60
2022-12-19T14:31:33.117Z,9.97
2022-12-19T14:36:49.534Z,7.87
2022-12-19T14:39:24.218Z,10.93
2022-12-19T14:43:38.959Z,8.83
2022-12-19T14:53:17.581Z,9.87
2022-12-19T14:54:09.037Z,7.03
2022-12-19T14:54:35.863Z,8.63
2022-12-19T14:57:29.142Z,8.40
2022-12-19T15:00:51.557Z,8.20
2022-12-19T15:03:16.936Z,8.10
2022-12-19T15:05:45.476Z,8.60
2022-12-19T15:08:13.766Z,7.73
2022-12-19T15:11:04.924Z,8.23
2022-12-19T15:14:48.563Z,6.70
2022-12-19T15:16:25.591Z,7.97
2022-12-19T15:18:58.700Z,8.70
2022-12-19T15:21:26.560Z,6.70
2022-12-19T15:23:54.239Z,8.57
2022-12-19T15:26:28.467Z,7.57
2022-12-19T15:29:00.858Z,7.53
2022-12-19T15:31:32.363Z,6.50
2022-12-19T15:34:33.691Z,8.20
2022-12-19T15:36:47.923Z,5.90
2022-12-19T15:39:16.035Z,7.20
2022-12-19T15:41:44.024Z,8.03
2022-12-19T15:44:17.561Z,8.10
2022-12-19T15:46:49.067Z,7.87
2022-12-19T15:49:17.879Z,5.57
2022-12-19T15:51:45.743Z,7.70
2022-12-19T15:57:01.356Z,6.93
2022-12-19T15:59:38.038Z,7.20
2022-12-19T16:02:15.800Z,7.67
2022-12-19T16:04:43.987Z,6.63
2022-12-19T16:07:15.338Z,6.77
2022-12-19T16:09:42.988Z,6.23
2022-12-19T16:12:11.813Z,7.60
2022-12-19T16:14:40.871Z,7.37
2022-12-19T16:17:12.190Z,6.60
2022-12-19T16:19:41.185Z,6.87
2022-12-19T16:22:15.931Z,6.63
2022-12-19T16:24:43.923Z,6.40
2022-12-19T16:27:11.666Z,7.37
2022-12-19T16:29:41.969Z,5.70
2022-12-19T16:32:11.230Z,5.80
2022-12-19T16:34:38.876Z,5.47
2022-12-19T16:37:07.798Z,7.20
2022-12-19T16:39:35.459Z,5.83
2022-12-19T16:42:04.306Z,5.60
2022-12-19T16:44:32.610Z,6.20
2022-12-19T16:47:01.863Z,4.80
2022-12-19T16:49:29.600Z,8.03
2022-12-19T16:51:57.261Z,5.93
2022-12-19T16:54:24.994Z,6.30
2022-12-19T16:56:53.672Z,5.17
2022-12-19T16:59:22.153Z,5.80
2022-12-19T17:01:51.111Z,5.47
2022-12-19T17:04:21.492Z,5.77
2022-12-19T17:06:49.785Z,5.17
2022-12-19T17:09:18.229Z,4.90
2022-12-19T17:11:46.772Z,5.03
2022-12-19T17:14:16.770Z,5.90
2022-12-19T17:16:44.730Z,5.43
2022-12-19T17:19:12.821Z,6.00
2022-12-19T17:21:41.882Z,5.80
2022-12-19T17:24:12.051Z,5.77
2022-12-19T17:26:39.718Z,5.30
2022-12-19T17:29:07.391Z,5.40
2022-12-19T17:31:38.192Z,6.07
2022-12-19T17:34:08.131Z,4.80
2022-12-19T17:36:37.918Z,4.57
2022-12-19T17:39:15.748Z,5.30
2022-12-19T17:41:43.464Z,4.73
2022-12-19T17:44:11.561Z,5.20
2022-12-19T17:46:39.173Z,5.60
2022-12-19T17:49:06.946Z,5.97
2022-12-19T17:51:34.538Z,5.40
2022-12-19T17:54:02.153Z,5.83
2022-12-19T17:56:31.214Z,5.40
2022-12-19T17:58:58.797Z,5.80
2022-12-19T18:01:26.625Z,5.53
2022-12-19T18:03:56.064Z,6.50
2022-12-19T18:06:23.648Z,5.77
2022-12-19T18:08:51.407Z,4.87
2022-12-19T18:11:20.568Z,5.10
2022-12-19T18:13:50.764Z,5.87
2022-12-19T18:16:19.648Z,5.70
2022-12-19T18:18:47.583Z,5.63
2022-12-19T18:21:19.719Z,5.10
2022-12-19T18:23:47.592Z,5.73
2022-12-19T18:26:15.288Z,5.40
2022-12-19T18:28:43.280Z,5.63
2022-12-19T18:31:14.979Z,4.90
2022-12-19T18:33:45.348Z,6.23
2022-12-19T18:36:17.764Z,5.30
2022-12-19T18:38:45.517Z,5.17
2022-12-19T18:41:13.449Z,5.80
2022-12-19T18:43:41.181Z,5.30
2022-12-19T18:46:14.594Z,4.00
2022-12-19T18:48:42.540Z,5.23
2022-12-19T18:51:14.217Z,5.07
2022-12-19T18:53:42.011Z,5.87
2022-12-19T18:56:09.848Z,5.57
2022-12-19T18:58:37.656Z,5.77
2022-12-19T19:01:06.395Z,5.80
2022-12-19T19:03:36.433Z,5.50
2022-12-19T19:06:05.374Z,5.80
2022-12-19T19:08:33.981Z,9.67
2022-12-19T19:11:01.707Z,5.70
2022-12-19T19:13:29.426Z,5.80
2022-12-19T19:15:58.720Z,6.20
2022-12-19T19:18:29.812Z,5.27
2022-12-19T19:21:01.205Z,6.23
2022-12-19T19:23:30.693Z,5.37
2022-12-19T19:25:58.466Z,5.33
2022-12-19T19:28:26.202Z,5.43
2022-12-19T19:30:54.619Z,5.20
2022-12-19T19:33:23.587Z,5.03
2022-12-19T19:35:51.910Z,5.83
2022-12-19T19:38:20.958Z,4.97
2022-12-19T19:40:48.817Z,5.10
2022-12-19T19:43:16.521Z,5.80
2022-12-19T19:45:44.190Z,5.20
2022-12-19T19:48:12.002Z,4.90
2022-12-19T19:50:39.691Z,5.00
2022-12-19T19:53:07.402Z,5.27
2022-12-19T19:55:36.615Z,4.90
2022-12-19T19:58:04.202Z,5.23
2022-12-19T20:00:31.886Z,4.83
2022-12-19T20:03:03.641Z,4.67
2022-12-19T20:05:34.099Z,4.93
2022-12-19T20:08:01.830Z,4.40
2022-12-19T20:10:29.663Z,12.13
2022-12-19T20:12:58.759Z,10.40
2022-12-19T20:15:26.502Z,5.13
2022-12-19T20:17:57.806Z,4.90
2022-12-19T20:20:25.503Z,4.50
2022-12-19T20:22:53.272Z,5.17
2022-12-19T20:25:20.899Z,4.57
2022-12-19T20:27:48.464Z,4.47
2022-12-19T20:30:21.054Z,4.63
2022-12-19T20:32:48.804Z,5.20
2022-12-19T20:35:17.042Z,5.23
2022-12-19T20:37:44.858Z,5.17
2022-12-19T20:40:12.999Z,4.60
2022-12-19T20:42:40.689Z,5.07
2022-12-19T20:45:09.110Z,4.73
2022-12-19T20:47:38.013Z,4.93
2022-12-19T20:50:07.519Z,5.20
2022-12-19T20:52:36.847Z,5.00
2022-12-19T20:55:04.769Z,4.87
2022-12-19T20:57:32.445Z,5.53
2022-12-19T21:00:00.197Z,4.83
2022-12-19T21:02:28.194Z,4.43
2022-12-19T21:04:57.314Z,4.53
2022-12-19T21:07:25.408Z,4.20
2022-12-19T21:09:54.110Z,4.97
2022-12-19T21:12:24.108Z,5.77
2022-12-19T21:14:51.833Z,5.10
2022-12-19T21:17:19.657Z,5.00
2022-12-19T21:19:47.369Z,5.07
2022-12-19T21:24:44.255Z,6.10
2022-12-19T21:27:11.917Z,5.40
2022-12-19T21:29:39.608Z,4.53
2022-12-19T21:32:09.131Z,5.37
2022-12-19T21:34:39.211Z,6.07
2022-12-19T21:37:06.846Z,5.47
2022-12-19T21:39:34.611Z,5.53
2022-12-19T21:42:03.639Z,5.37
2022-12-19T21:44:31.485Z,5.27
2022-12-19T21:46:59.223Z,4.37
2022-12-19T21:49:27.087Z,4.03
2022-12-19T21:51:54.747Z,6.63
2022-12-19T21:54:22.586Z,5.50
2022-12-19T21:56:50.358Z,4.87
2022-12-19T21:59:19.419Z,5.60
2022-12-19T22:01:47.268Z,4.50
2022-12-19T22:04:17.613Z,4.47
2022-12-19T22:06:45.349Z,4.17
2022-12-19T22:09:14.085Z,4.53
2022-12-19T22:11:43.007Z,4.87
2022-12-19T22:14:12.268Z,4.77
2022-12-19T22:16:41.340Z,5.50
2022-12-19T22:19:09.073Z,4.57
2022-12-19T22:21:36.931Z,5.53
2022-12-19T22:24:04.751Z,4.97
2022-12-19T22:26:32.701Z,5.17
2022-12-19T22:29:00.436Z,4.50
2022-12-19T22:31:29.777Z,4.10
2022-12-19T22:34:00.126Z,4.70
2022-12-19T22:36:31.486Z,4.60
2022-12-19T22:38:59.960Z,4.67
2022-12-19T22:41:27.778Z,4.53
2022-12-19T22:43:55.587Z,5.40
2022-12-19T22:46:26.112Z,4.63
2022-12-19T22:48:54.104Z,5.20
2022-12-19T22:51:23.243Z,5.03
2022-12-19T22:53:50.873Z,5.13
2022-12-19T22:56:19.666Z,3.83
2022-12-19T22:58:48.843Z,4.53
2022-12-19T23:01:17.547Z,3.57
2022-12-19T23:03:45.859Z,5.17
2022-12-19T23:06:13.876Z,4.43
2022-12-19T23:08:42.910Z,5.07
2022-12-19T23:11:11.863Z,4.20
2022-12-19T23:13:39.581Z,3.30
2022-12-19T23:16:07.736Z,3.50
2022-12-19T23:18:35.350Z,3.37
2022-12-19T23:21:04.274Z,3.77
2022-12-19T23:23:39.327Z,3.80
2022-12-19T23:26:15.164Z,3.80
2022-12-19T23:28:43.384Z,3.63
2022-12-19T23:31:12.060Z,3.17
2022-12-19T23:33:39.647Z,3.20
2022-12-19T23:36:07.641Z,3.13
2022-12-19T23:38:35.220Z,3.50
2022-12-19T23:41:03.288Z,3.17
2022-12-19T23:43:32.474Z,3.23
2022-12-19T23:46:00.246Z,3.87
2022-12-19T23:48:28.349Z,2.60
2022-12-19T23:51:00.454Z,3.13
2022-12-19T23:53:28.323Z,2.70
2022-12-19T23:55:55.915Z,3.07
2022-12-19T23:58:24.893Z,3.50
